Time;durP1;ratioP1;P1;durP2;ratioP2;P2;SDS_P1;SDS_P2;PMS_P1;PMS_P2;Temp;Humidity;BMP_temperature;BMP_pressure;BME280_temperature;BME280_humidity;BME280_pressure;Samples;Min_cycle;Max_cycle;Signal;HPM_P1;HPM_P2
2022/03/28 00:02:05;;;;;;;;;;;18.60;57.60;;;;;;5032703;28;1073;-72
2022/03/28 00:04:31;;;;;;;;;;;18.60;57.70;;;;;;5032973;28;1190;-71
2022/03/28 00:06:56;;;;;;;;;;;18.60;57.70;;;;;;5032867;28;1385;-72
2022/03/28 00:09:22;;;;;;;;;;;18.60;57.70;;;;;;5031638;28;1399;-73
2022/03/28 00:11:47;;;;;;;;;;;18.60;57.70;;;;;;5031618;28;1083;-71
2022/03/28 00:14:12;;;;;;;;;;;18.60;57.70;;;;;;5033072;28;1333;-71
2022/03/28 00:16:38;;;;;;;;;;;18.60;57.70;;;;;;5031089;28;1359;-72
2022/03/28 00:19:03;;;;;;;;;;;18.60;57.70;;;;;;5032710;28;1380;-71
2022/03/28 00:21:29;;;;;;;;;;;18.60;57.70;;;;;;5032768;28;1902;-72
2022/03/28 00:23:54;;;;;;;;;;;18.60;57.80;;;;;;5031501;28;1418;-72
2022/03/28 00:26:20;;;;;;;;;;;18.50;57.80;;;;;;5022883;28;1354;-71
2022/03/28 00:28:45;;;;;;;;;;;18.60;57.80;;;;;;5021286;28;1293;-71
2022/03/28 00:31:10;;;;;;;;;;;18.60;57.80;;;;;;5036699;28;1282;-72
2022/03/28 00:33:36;;;;;;;;;;;18.50;57.80;;;;;;5036773;28;1354;-71
2022/03/28 00:36:02;;;;;;;;;;;18.60;57.80;;;;;;5033323;28;1369;-72
2022/03/28 00:38:27;;;;;;;;;;;18.60;57.90;;;;;;5067574;28;1325;-72
2022/03/28 00:40:53;;;;;;;;;;;18.60;57.90;;;;;;5033927;28;1959;-71
2022/03/28 00:43:18;;;;;;;;;;;18.50;57.80;;;;;;5032080;28;1122;-71
2022/03/28 00:45:44;;;;;;;;;;;18.50;57.80;;;;;;5028164;28;1263;-71
2022/03/28 00:48:10;;;;;;;;;;;18.50;57.90;;;;;;5036372;28;1114;-72
2022/03/28 00:50:35;;;;;;;;;;;18.50;57.90;;;;;;5035330;28;1372;-71
2022/03/28 00:53:01;;;;;;;;;;;18.50;57.90;;;;;;5021965;28;1187;-71
2022/03/28 00:55:26;;;;;;;;;;;18.50;57.90;;;;;;5018633;28;1324;-73
2022/03/28 00:57:51;;;;;;;;;;;18.50;57.90;;;;;;5035985;28;1270;-71
2022/03/28 01:00:17;;;;;;;;;;;18.50;57.90;;;;;;5036125;28;1957;-71
2022/03/28 01:02:43;;;;;;;;;;;18.50;57.90;;;;;;5036319;28;1256;-71
2022/03/28 01:05:09;;;;;;;;;;;18.50;57.90;;;;;;5035081;28;1097;-72
2022/03/28 01:07:34;;;;;;;;;;;18.50;57.90;;;;;;5013868;28;1446;-71
2022/03/28 01:10:00;;;;;;;;;;;18.50;58.00;;;;;;5025818;28;1362;-71
2022/03/28 01:12:26;;;;;;;;;;;18.50;58.00;;;;;;5034737;28;1240;-71
2022/03/28 01:14:51;;;;;;;;;;;18.50;58.00;;;;;;5034637;28;1135;-71
2022/03/28 01:20:01;;;;;;;;;;;18.50;58.00;;;;;;5035898;28;1898;-72
2022/03/28 01:22:27;;;;;;;;;;;18.50;58.00;;;;;;5035804;28;1198;-72
2022/03/28 01:24:52;;;;;;;;;;;18.50;58.00;;;;;;5017199;28;1406;-71
2022/03/28 01:27:17;;;;;;;;;;;18.50;58.00;;;;;;5043275;28;1303;-72
2022/03/28 01:29:44;;;;;;;;;;;18.50;58.00;;;;;;5031258;28;1355;-72
2022/03/28 01:32:09;;;;;;;;;;;18.50;58.00;;;;;;5034407;28;1394;-71
2022/03/28 01:34:35;;;;;;;;;;;18.50;58.10;;;;;;5034523;28;1361;-71
2022/03/28 01:37:00;;;;;;;;;;;18.50;58.10;;;;;;5029016;28;1516;-72
2022/03/28 01:39:26;;;;;;;;;;;18.50;58.10;;;;;;5034348;28;1297;-72
2022/03/28 01:41:51;;;;;;;;;;;18.50;58.10;;;;;;5030942;28;1957;-72
2022/03/28 01:44:17;;;;;;;;;;;18.50;58.10;;;;;;5035481;28;1408;-71
2022/03/28 01:46:46;;;;;;;;;;;18.50;58.10;;;;;;5035098;28;1446;-72
2022/03/28 01:49:15;;;;;;;;;;;18.50;58.10;;;;;;5035388;28;1055;-71
2022/03/28 01:51:40;;;;;;;;;;;18.50;58.10;;;;;;5034125;28;1072;-72
2022/03/28 01:54:06;;;;;;;;;;;18.50;58.20;;;;;;5033984;28;1091;-72
2022/03/28 01:56:32;;;;;;;;;;;18.50;58.10;;;;;;5016970;28;1303;-71
2022/03/28 01:58:58;;;;;;;;;;;18.50;58.80;;;;;;5035090;28;1350;-72
2022/03/28 02:01:23;;;;;;;;;;;18.50;58.20;;;;;;5035100;28;2030;-72
2022/03/28 02:03:49;;;;;;;;;;;18.40;58.70;;;;;;5034995;28;1044;-72
2022/03/28 02:06:14;;;;;;;;;;;18.40;58.20;;;;;;5033556;28;1294;-71
2022/03/28 02:08:40;;;;;;;;;;;18.40;58.10;;;;;;5034945;28;1413;-72
2022/03/28 02:11:05;;;;;;;;;;;18.40;58.20;;;;;;5034857;28;1125;-72
2022/03/28 02:13:31;;;;;;;;;;;18.40;58.20;;;;;;5034914;28;1059;-72
2022/03/28 02:15:56;;;;;;;;;;;18.40;58.20;;;;;;5033331;28;1315;-71
2022/03/28 02:18:22;;;;;;;;;;;18.40;58.20;;;;;;5034858;28;1320;-71
2022/03/28 02:20:47;;;;;;;;;;;18.40;58.20;;;;;;5029055;28;1902;-72
2022/03/28 02:23:13;;;;;;;;;;;18.40;58.20;;;;;;5027045;28;1351;-72
2022/03/28 02:25:39;;;;;;;;;;;18.40;58.20;;;;;;5014712;28;1375;-72
2022/03/28 02:28:04;;;;;;;;;;;18.40;58.20;;;;;;5021456;28;1209;-71
2022/03/28 02:30:30;;;;;;;;;;;18.40;58.20;;;;;;5030107;28;1363;-72
2022/03/28 02:32:56;;;;;;;;;;;18.40;58.20;;;;;;5059694;28;1065;-72
2022/03/28 02:35:22;;;;;;;;;;;18.40;58.20;;;;;;5034512;28;1257;-72
2022/03/28 02:37:47;;;;;;;;;;;18.40;58.20;;;;;;5028329;28;1125;-71
2022/03/28 02:40:13;;;;;;;;;;;18.40;58.20;;;;;;5034142;28;1898;-72
2022/03/28 02:42:38;;;;;;;;;;;18.40;58.30;;;;;;5030331;28;1639;-72
2022/03/28 02:45:04;;;;;;;;;;;18.40;58.30;;;;;;5034435;28;1000;-71
2022/03/28 02:47:29;;;;;;;;;;;18.40;58.30;;;;;;5032170;28;1283;-71
2022/03/28 02:49:55;;;;;;;;;;;18.40;58.30;;;;;;5034254;28;1319;-71
2022/03/28 02:52:22;;;;;;;;;;;18.40;58.30;;;;;;5020244;28;1414;-71
2022/03/28 02:54:47;;;;;;;;;;;18.40;58.30;;;;;;5028203;28;1336;-71
2022/03/28 02:57:13;;;;;;;;;;;18.40;58.30;;;;;;5024968;28;1252;-72
2022/03/28 02:59:38;;;;;;;;;;;18.40;58.30;;;;;;5034290;28;1977;-72
2022/03/28 03:02:04;;;;;;;;;;;18.40;58.30;;;;;;5033925;28;1090;-72
2022/03/28 03:04:30;;;;;;;;;;;18.40;58.30;;;;;;5033925;28;1115;-71
2022/03/28 03:06:55;;;;;;;;;;;18.40;58.30;;;;;;5003768;28;1526;-71
2022/03/28 03:09:20;;;;;;;;;;;18.40;58.30;;;;;;5032722;28;1321;-71
2022/03/28 03:11:46;;;;;;;;;;;18.40;58.30;;;;;;5032624;28;1064;-70
2022/03/28 03:14:11;;;;;;;;;;;18.40;58.30;;;;;;5033656;28;1336;-72
2022/03/28 03:16:37;;;;;;;;;;;18.40;58.30;;;;;;5033547;28;1281;-72
2022/03/28 03:19:03;;;;;;;;;;;18.40;58.40;;;;;;5033774;28;1099;-71
2022/03/28 03:21:28;;;;;;;;;;;18.40;58.40;;;;;;5033699;28;1903;-71
2022/03/28 03:23:54;;;;;;;;;;;18.30;58.30;;;;;;5033442;28;1306;-72
2022/03/28 03:26:19;;;;;;;;;;;18.30;58.30;;;;;;5032865;28;1271;-71
2022/03/28 03:28:44;;;;;;;;;;;18.30;58.30;;;;;;5020271;28;1059;-72
2022/03/28 03:31:10;;;;;;;;;;;18.30;58.30;;;;;;5020473;28;1095;-72
2022/03/28 03:33:35;;;;;;;;;;;18.30;58.30;;;;;;5025613;28;1345;-71
2022/03/28 03:36:01;;;;;;;;;;;18.30;58.30;;;;;;5013376;28;1244;-71
2022/03/28 03:38:27;;;;;;;;;;;18.30;58.40;;;;;;5063569;28;1448;-72
2022/03/28 03:40:53;;;;;;;;;;;18.30;58.40;;;;;;5030503;28;1906;-71
2022/03/28 03:43:18;;;;;;;;;;;18.30;58.40;;;;;;5031739;28;1313;-71
2022/03/28 03:45:43;;;;;;;;;;;18.30;58.40;;;;;;5033203;28;1190;-72
2022/03/28 03:48:09;;;;;;;;;;;18.30;58.40;;;;;;5028325;28;1384;-72
2022/03/28 03:50:34;;;;;;;;;;;18.30;58.40;;;;;;5024770;28;1264;-72
2022/03/28 03:53:00;;;;;;;;;;;18.30;58.40;;;;;;5031923;28;1382;-72
2022/03/28 03:55:25;;;;;;;;;;;18.30;58.40;;;;;;5031727;28;1303;-72
2022/03/28 03:57:51;;;;;;;;;;;18.30;58.40;;;;;;5031876;28;1331;-71
2022/03/28 04:00:16;;;;;;;;;;;18.30;59.00;;;;;;5031021;28;1898;-71
2022/03/28 04:02:42;;;;;;;;;;;18.30;58.40;;;;;;5033066;28;1360;-71
2022/03/28 04:05:07;;;;;;;;;;;18.40;58.40;;;;;;5032988;28;1134;-71
2022/03/28 04:07:33;;;;;;;;;;;18.30;58.40;;;;;;5031311;28;1310;-71
2022/03/28 04:09:59;;;;;;;;;;;18.30;58.40;;;;;;5033087;28;1270;-71
2022/03/28 04:12:24;;;;;;;;;;;18.30;58.40;;;;;;5031762;28;1372;-71
2022/03/28 04:14:50;;;;;;;;;;;18.30;58.40;;;;;;5032923;28;1356;-71
2022/03/28 04:17:15;;;;;;;;;;;18.30;58.40;;;;;;5026698;28;1359;-71
2022/03/28 04:19:41;;;;;;;;;;;18.30;58.40;;;;;;5024004;28;2019;-71
2022/03/28 04:22:06;;;;;;;;;;;18.30;58.40;;;;;;5032721;28;1107;-71
2022/03/28 04:24:32;;;;;;;;;;;18.30;58.50;;;;;;5032621;28;1404;-71
2022/03/28 04:26:57;;;;;;;;;;;18.30;58.50;;;;;;5028245;28;1357;-72
2022/03/28 04:29:23;;;;;;;;;;;18.30;58.50;;;;;;5024084;28;1115;-71
2022/03/28 04:31:49;;;;;;;;;;;18.30;58.50;;;;;;5033029;28;1440;-72
2022/03/28 04:34:14;;;;;;;;;;;18.30;58.50;;;;;;5032916;28;1142;-72
2022/03/28 04:36:39;;;;;;;;;;;18.30;58.50;;;;;;5027907;28;1325;-71
2022/03/28 04:39:05;;;;;;;;;;;18.30;58.50;;;;;;5033553;28;1130;-71
2022/03/28 04:41:31;;;;;;;;;;;18.30;58.50;;;;;;5028815;28;1910;-71
2022/03/28 04:43:57;;;;;;;;;;;18.30;58.40;;;;;;5031521;28;1398;-71
2022/03/28 04:46:23;;;;;;;;;;;18.30;58.30;;;;;;5032332;28;1345;-71
2022/03/28 04:48:48;;;;;;;;;;;18.40;58.30;;;;;;5031944;28;1406;-71
2022/03/28 04:51:14;;;;;;;;;;;18.40;58.20;;;;;;5032575;28;1242;-71
2022/03/28 04:53:40;;;;;;;;;;;18.50;58.20;;;;;;5032368;28;1413;-71
2022/03/28 04:56:05;;;;;;;;;;;18.50;58.10;;;;;;5032361;28;1252;-72
2022/03/28 04:58:31;;;;;;;;;;;18.50;57.90;;;;;;5032062;28;1420;-72
2022/03/28 05:00:56;;;;;;;;;;;18.60;57.90;;;;;;5031992;28;1983;-72
2022/03/28 05:03:21;;;;;;;;;;;18.60;57.70;;;;;;5033000;28;1045;-71
2022/03/28 05:05:47;;;;;;;;;;;18.60;57.70;;;;;;5032782;28;1468;-71
2022/03/28 05:08:12;;;;;;;;;;;18.70;57.60;;;;;;5031414;28;1305;-72
2022/03/28 05:10:38;;;;;;;;;;;18.70;57.50;;;;;;5032910;28;1326;-72
2022/03/28 05:13:03;;;;;;;;;;;18.70;57.40;;;;;;5036751;28;1051;-71
2022/03/28 05:15:28;;;;;;;;;;;18.70;57.40;;;;;;5035078;28;1346;-71
2022/03/28 05:17:54;;;;;;;;;;;18.70;57.30;;;;;;5034899;28;1151;-71
2022/03/28 05:20:19;;;;;;;;;;;18.80;57.30;;;;;;5036317;28;1965;-72
2022/03/28 05:22:45;;;;;;;;;;;18.80;57.20;;;;;;5036199;28;1258;-71
2022/03/28 05:25:10;;;;;;;;;;;18.80;57.20;;;;;;5035231;28;1261;-72
2022/03/28 05:27:45;;;;;;;;;;;18.90;57.20;;;;;;5025638;28;1194;-71
2022/03/28 05:30:11;;;;;;;;;;;18.80;57.10;;;;;;5032229;28;1275;-71
2022/03/28 05:32:36;;;;;;;;;;;18.90;57.10;;;;;;5035056;28;1068;-71
2022/03/28 05:35:02;;;;;;;;;;;18.90;57.00;;;;;;5034922;28;1107;-72
2022/03/28 05:37:27;;;;;;;;;;;18.90;57.00;;;;;;5030837;28;1207;-72
2022/03/28 05:39:52;;;;;;;;;;;18.90;57.00;;;;;;5035586;28;1971;-73
2022/03/28 05:42:18;;;;;;;;;;;18.90;56.90;;;;;;5031446;28;1601;-73
2022/03/28 05:44:44;;;;;;;;;;;18.90;56.90;;;;;;5035447;28;1118;-72
2022/03/28 05:47:09;;;;;;;;;;;18.90;56.80;;;;;;5035152;28;1212;-71
2022/03/28 05:49:35;;;;;;;;;;;18.90;56.80;;;;;;5034153;28;1277;-72
2022/03/28 05:52:00;;;;;;;;;;;19.00;56.90;;;;;;5035298;28;1091;-73
2022/03/28 05:54:26;;;;;;;;;;;19.00;56.80;;;;;;5034312;28;1300;-72
2022/03/28 05:56:51;;;;;;;;;;;19.00;56.80;;;;;;5035057;28;1313;-73
2022/03/28 05:59:16;;;;;;;;;;;19.00;56.80;;;;;;5035189;28;1175;-72
2022/03/28 06:01:42;;;;;;;;;;;19.00;56.80;;;;;;5035103;28;1905;-72
2022/03/28 06:04:07;;;;;;;;;;;19.00;56.70;;;;;;5034204;28;1076;-73
2022/03/28 06:06:33;;;;;;;;;;;19.00;56.70;;;;;;5034630;28;1283;-73
2022/03/28 06:08:58;;;;;;;;;;;19.00;56.70;;;;;;5034970;28;1130;-72
2022/03/28 06:11:24;;;;;;;;;;;19.00;56.70;;;;;;5035135;28;1266;-73
2022/03/28 06:13:49;;;;;;;;;;;19.00;56.70;;;;;;5034835;28;1327;-73
2022/03/28 06:16:14;;;;;;;;;;;19.00;56.60;;;;;;5033637;28;1352;-71
2022/03/28 06:18:40;;;;;;;;;;;19.10;56.70;;;;;;5034766;28;1087;-73
2022/03/28 06:21:07;;;;;;;;;;;19.00;55.20;;;;;;5034718;28;1890;-73
2022/03/28 06:23:33;;;;;;;;;;;19.00;54.80;;;;;;5033694;28;1373;-72
2022/03/28 06:25:58;;;;;;;;;;;19.00;54.60;;;;;;5029849;28;2044;-69
2022/03/28 06:28:24;;;;;;;;;;;19.00;54.60;;;;;;5008224;28;1405;-74
2022/03/28 06:30:49;;;;;;;;;;;19.00;54.70;;;;;;5013159;28;1260;-72
2022/03/28 06:33:15;;;;;;;;;;;19.00;54.60;;;;;;5028032;28;875;-71
2022/03/28 06:35:40;;;;;;;;;;;19.00;54.60;;;;;;5023083;28;1342;-71
2022/03/28 06:38:06;;;;;;;;;;;19.00;54.80;;;;;;5027408;28;1054;-71
2022/03/28 06:40:32;;;;;;;;;;;19.00;54.90;;;;;;5022591;28;1969;-71
2022/03/28 06:42:57;;;;;;;;;;;19.10;55.00;;;;;;5030907;28;1593;-71
2022/03/28 06:45:23;;;;;;;;;;;19.00;55.10;;;;;;5034138;28;1283;-70
2022/03/28 06:47:51;;;;;;;;;;;19.10;55.30;;;;;;5020411;28;1127;-70
2022/03/28 06:50:16;;;;;;;;;;;19.10;55.30;;;;;;5020222;28;1170;-70
2022/03/28 06:52:42;;;;;;;;;;;19.10;55.40;;;;;;5013453;28;1343;-70
2022/03/28 06:55:07;;;;;;;;;;;19.10;55.40;;;;;;5013813;28;1268;-70
2022/03/28 06:57:33;;;;;;;;;;;19.10;55.60;;;;;;5027708;28;1500;-72
2022/03/28 06:59:58;;;;;;;;;;;19.10;55.50;;;;;;5030960;28;1969;-69
2022/03/28 07:02:24;;;;;;;;;;;19.20;55.50;;;;;;5032263;28;1575;-71
2022/03/28 07:04:49;;;;;;;;;;;19.30;55.40;;;;;;5024380;28;1402;-70
2022/03/28 07:07:15;;;;;;;;;;;19.40;55.60;;;;;;5017865;28;1439;-70
2022/03/28 07:09:40;;;;;;;;;;;19.50;55.20;;;;;;5017425;28;1319;-68
2022/03/28 07:12:06;;;;;;;;;;;19.60;55.10;;;;;;5015737;28;1314;-70
2022/03/28 07:14:32;;;;;;;;;;;19.70;55.20;;;;;;5013369;28;1460;-70
2022/03/28 07:16:57;;;;;;;;;;;19.80;55.20;;;;;;5014658;28;1425;-69
2022/03/28 07:19:23;;;;;;;;;;;19.90;55.10;;;;;;5011511;28;1340;-69
2022/03/28 07:21:48;;;;;;;;;;;20.00;55.20;;;;;;5014412;28;1910;-70
2022/03/28 07:24:15;;;;;;;;;;;20.10;55.10;;;;;;5013937;28;1209;-70
2022/03/28 07:26:44;;;;;;;;;;;20.10;55.10;;;;;;5013365;28;1313;-70
2022/03/28 07:29:09;;;;;;;;;;;20.20;55.20;;;;;;5026453;28;1371;-70
2022/03/28 07:31:39;;;;;;;;;;;20.30;55.20;;;;;;5012094;28;1420;-70
2022/03/28 07:36:51;;;;;;;;;;;20.40;55.40;;;;;;5018817;28;1506;-70
2022/03/28 07:39:18;;;;;;;;;;;20.40;56.00;;;;;;5032291;28;1606;-71
2022/03/28 07:41:43;;;;;;;;;;;20.50;55.50;;;;;;5029501;28;1902;-71
2022/03/28 07:44:09;;;;;;;;;;;20.50;55.30;;;;;;5033368;28;1668;-71
2022/03/28 07:46:34;;;;;;;;;;;20.50;55.20;;;;;;5032802;28;1649;-70
2022/03/28 07:49:00;;;;;;;;;;;20.50;55.20;;;;;;5033099;28;1366;-68
2022/03/28 07:51:25;;;;;;;;;;;20.50;55.30;;;;;;5032959;28;1401;-70
2022/03/28 07:53:54;;;;;;;;;;;20.50;55.30;;;;;;5033345;28;1631;-71
2022/03/28 07:56:19;;;;;;;;;;;20.50;55.30;;;;;;5032786;28;1701;-70
2022/03/28 07:58:45;;;;;;;;;;;20.50;55.50;;;;;;5032042;28;1571;-70
2022/03/28 08:01:11;;;;;;;;;;;20.50;55.50;;;;;;5032774;28;1970;-69
2022/03/28 08:03:36;;;;;;;;;;;20.50;55.60;;;;;;5033228;28;1662;-70
2022/03/28 08:06:02;;;;;;;;;;;20.50;55.70;;;;;;5032708;28;1615;-71
2022/03/28 08:08:28;;;;;;;;;;;20.40;55.70;;;;;;5031973;28;1115;-71
2022/03/28 08:10:54;;;;;;;;;;;20.40;55.80;;;;;;5033048;28;1504;-71
2022/03/28 08:13:19;;;;;;;;;;;20.40;56.50;;;;;;5033011;28;1436;-70
2022/03/28 08:15:45;;;;;;;;;;;20.40;56.10;;;;;;5032456;28;1726;-71
2022/03/28 08:18:10;;;;;;;;;;;20.40;56.80;;;;;;5031801;28;1375;-71
2022/03/28 08:20:36;;;;;;;;;;;20.40;56.90;;;;;;5032863;28;1914;-70
2022/03/28 08:23:02;;;;;;;;;;;20.30;56.90;;;;;;5033081;28;1660;-70
2022/03/28 08:25:27;;;;;;;;;;;20.30;57.00;;;;;;5031402;28;1363;-67
2022/03/28 08:27:53;;;;;;;;;;;20.30;57.10;;;;;;5021349;28;1506;-70
2022/03/28 08:30:18;;;;;;;;;;;20.30;57.20;;;;;;5030858;28;1679;-70
2022/03/28 08:32:45;;;;;;;;;;;20.20;57.10;;;;;;5031633;28;1378;-69
2022/03/28 08:35:11;;;;;;;;;;;20.20;57.30;;;;;;5032860;28;1444;-70
2022/03/28 08:37:37;;;;;;;;;;;20.20;57.30;;;;;;5027781;28;1462;-70
2022/03/28 08:40:03;;;;;;;;;;;20.20;57.40;;;;;;5032603;28;1976;-70
2022/03/28 08:42:29;;;;;;;;;;;20.20;57.40;;;;;;5028014;28;1999;-70
2022/03/28 08:44:54;;;;;;;;;;;20.20;57.60;;;;;;5032618;28;1312;-68
2022/03/28 08:47:20;;;;;;;;;;;20.20;57.60;;;;;;5036551;28;1614;-69
2022/03/28 08:49:49;;;;;;;;;;;20.20;57.60;;;;;;5036745;28;1639;-68
2022/03/28 08:52:16;;;;;;;;;;;20.10;57.60;;;;;;5035354;28;1052;-71
2022/03/28 08:54:42;;;;;;;;;;;20.10;57.70;;;;;;5036603;28;1773;-69
2022/03/28 08:57:07;;;;;;;;;;;20.10;57.80;;;;;;5036141;28;1493;-68
2022/03/28 08:59:32;;;;;;;;;;;20.10;57.80;;;;;;5035153;28;1641;-69
2022/03/28 09:01:58;;;;;;;;;;;20.10;57.90;;;;;;5036243;28;1902;-69
2022/03/28 09:04:24;;;;;;;;;;;20.10;57.90;;;;;;5036434;28;1720;-70
2022/03/28 09:06:49;;;;;;;;;;;20.10;58.00;;;;;;5036040;28;1357;-70
2022/03/28 09:09:16;;;;;;;;;;;20.10;58.10;;;;;;5036271;28;1429;-70
2022/03/28 09:11:45;;;;;;;;;;;20.00;58.10;;;;;;5035101;28;1714;-69
2022/03/28 09:14:12;;;;;;;;;;;20.10;58.10;;;;;;5034782;28;1400;-71
2022/03/28 09:16:37;;;;;;;;;;;20.00;58.20;;;;;;5035767;28;1582;-71
2022/03/28 09:19:08;;;;;;;;;;;20.00;58.20;;;;;;5036115;28;1659;-71
2022/03/28 09:21:33;;;;;;;;;;;20.00;58.30;;;;;;5034808;28;1963;-71
2022/03/28 09:23:59;;;;;;;;;;;20.00;58.40;;;;;;5034783;28;1707;-70
2022/03/28 09:26:25;;;;;;;;;;;20.00;58.60;;;;;;5021028;28;1686;-70
2022/03/28 09:28:58;;;;;;;;;;;20.00;58.80;;;;;;5022265;28;1066;-70
2022/03/28 09:31:25;;;;;;;;;;;20.00;58.90;;;;;;5034696;28;1418;-70
2022/03/28 09:33:50;;;;;;;;;;;20.00;58.90;;;;;;5035744;28;1376;-70
2022/03/28 09:36:16;;;;;;;;;;;20.00;59.00;;;;;;5030809;28;1581;-70
2022/03/28 09:38:53;;;;;;;;;;;20.00;59.00;;;;;;5035781;28;1371;-70
2022/03/28 09:41:20;;;;;;;;;;;19.90;58.90;;;;;;5030213;28;1906;-70
2022/03/28 09:43:46;;;;;;;;;;;19.90;58.90;;;;;;5017826;28;1701;-70
2022/03/28 09:46:11;;;;;;;;;;;19.90;59.10;;;;;;5017556;28;1670;-71
2022/03/28 09:48:38;;;;;;;;;;;19.90;59.00;;;;;;5034248;28;1612;-69
2022/03/28 09:51:04;;;;;;;;;;;19.90;59.00;;;;;;5034273;28;1422;-71
2022/03/28 09:53:31;;;;;;;;;;;19.90;59.10;;;;;;5034310;28;1369;-70
2022/03/28 09:55:57;;;;;;;;;;;19.90;59.20;;;;;;5033866;28;1393;-70
2022/03/28 09:58:48;;;;;;;;;;;19.90;59.20;;;;;;5026686;28;907;-69
2022/03/28 10:01:20;;;;;;;;;;;19.90;59.30;;;;;;5034173;28;1910;-69
2022/03/28 10:03:49;;;;;;;;;;;19.90;59.20;;;;;;5035512;28;1278;-71
2022/03/28 10:06:14;;;;;;;;;;;19.90;59.30;;;;;;5033414;28;1273;-71
2022/03/28 10:08:40;;;;;;;;;;;19.90;59.30;;;;;;5019944;28;2213;-70
2022/03/28 10:11:06;;;;;;;;;;;19.80;59.30;;;;;;5024796;28;1014;-71
2022/03/28 10:13:31;;;;;;;;;;;19.80;59.40;;;;;;5028010;28;1265;-70
2022/03/28 10:16:00;;;;;;;;;;;19.80;59.40;;;;;;5034752;28;1269;-71
2022/03/28 10:18:27;;;;;;;;;;;19.80;59.40;;;;;;5033877;28;1411;-70
2022/03/28 10:20:54;;;;;;;;;;;19.80;59.40;;;;;;5034760;28;1957;-70
2022/03/28 10:23:21;;;;;;;;;;;19.80;60.10;;;;;;5034105;28;1137;-70
2022/03/28 10:25:46;;;;;;;;;;;19.80;59.60;;;;;;5032748;28;1288;-70
2022/03/28 10:28:12;;;;;;;;;;;19.80;59.70;;;;;;5020426;28;1279;-70
2022/03/28 10:30:37;;;;;;;;;;;19.70;59.60;;;;;;5034661;28;1293;-71
2022/03/28 10:33:19;;;;;;;;;;;19.70;59.70;;;;;;5034765;28;1293;-71
2022/03/28 10:36:05;;;;;;;;;;;19.70;59.80;;;;;;5033464;28;1369;-72
2022/03/28 10:38:30;;;;;;;;;;;19.70;60.00;;;;;;5020474;28;1958;-71
2022/03/28 10:40:57;;;;;;;;;;;19.70;60.00;;;;;;5029896;28;1965;-71
2022/03/28 10:43:24;;;;;;;;;;;19.70;60.00;;;;;;5005207;28;1457;-70
2022/03/28 10:45:54;;;;;;;;;;;19.70;60.00;;;;;;5058381;28;1359;-71
2022/03/28 10:48:39;;;;;;;;;;;19.70;60.10;;;;;;5013022;28;1681;-70
2022/03/28 10:51:21;;;;;;;;;;;19.70;60.20;;;;;;5013099;28;1466;-70
2022/03/28 10:53:47;;;;;;;;;;;19.70;60.30;;;;;;5018813;28;1521;-69
2022/03/28 10:56:16;;;;;;;;;;;19.70;60.40;;;;;;5030782;28;1303;-71
2022/03/28 10:58:42;;;;;;;;;;;19.60;60.30;;;;;;5032678;28;1015;-71
2022/03/28 11:01:07;;;;;;;;;;;19.60;60.30;;;;;;5032643;28;1918;-70
2022/03/28 11:03:36;;;;;;;;;;;19.60;60.30;;;;;;5034142;28;1075;-70
2022/03/28 11:06:02;;;;;;;;;;;19.60;60.30;;;;;;5032488;28;1422;-71
2022/03/28 11:08:35;;;;;;;;;;;19.60;60.30;;;;;;5033909;28;1305;-72
2022/03/28 11:11:12;;;;;;;;;;;19.60;60.40;;;;;;5032547;28;969;-70
2022/03/28 11:13:38;;;;;;;;;;;19.60;60.50;;;;;;5032672;28;1389;-70
2022/03/28 11:16:04;;;;;;;;;;;19.60;60.60;;;;;;5033492;28;1357;-71
2022/03/28 11:18:29;;;;;;;;;;;19.60;60.50;;;;;;5030348;28;1840;-72
2022/03/28 11:20:55;;;;;;;;;;;19.70;60.60;;;;;;5007957;28;1955;-71
2022/03/28 11:23:20;;;;;;;;;;;19.60;60.60;;;;;;5019109;28;1580;-72
2022/03/28 11:25:48;;;;;;;;;;;19.60;60.50;;;;;;5030364;28;1199;-72
2022/03/28 11:28:14;;;;;;;;;;;19.60;60.60;;;;;;5019128;28;1248;-72
2022/03/28 11:30:48;;;;;;;;;;;19.60;60.50;;;;;;5033700;28;1268;-72
2022/03/28 11:33:15;;;;;;;;;;;19.70;60.60;;;;;;5033848;28;1330;-71
2022/03/28 11:35:42;;;;;;;;;;;19.70;60.60;;;;;;5032744;28;1307;-71
2022/03/28 11:38:08;;;;;;;;;;;19.70;60.60;;;;;;5061437;28;1480;-70
2022/03/28 11:40:37;;;;;;;;;;;19.70;60.60;;;;;;5032178;28;1902;-70
2022/03/28 11:43:03;;;;;;;;;;;19.70;60.60;;;;;;5026078;28;1127;-70
2022/03/28 11:45:29;;;;;;;;;;;19.60;60.70;;;;;;5033084;28;1360;-70
2022/03/28 11:47:55;;;;;;;;;;;19.60;60.70;;;;;;5031994;28;1384;-71
2022/03/28 11:50:20;;;;;;;;;;;19.60;60.80;;;;;;5031771;28;1565;-70
2022/03/28 11:52:50;;;;;;;;;;;19.60;60.80;;;;;;5031953;28;1341;-70
2022/03/28 11:55:24;;;;;;;;;;;19.60;60.90;;;;;;5032010;28;1079;-70
2022/03/28 12:00:35;;;;;;;;;;;19.60;61.00;;;;;;5032692;28;1898;-70
2022/03/28 12:03:00;;;;;;;;;;;19.50;60.90;;;;;;5033029;28;1353;-71
2022/03/28 12:05:29;;;;;;;;;;;19.60;61.30;;;;;;5032798;28;1262;-71
2022/03/28 12:07:54;;;;;;;;;;;19.60;59.30;;;;;;5012887;28;1135;-69
2022/03/28 12:10:27;;;;;;;;;;;19.60;58.40;;;;;;5009870;28;1589;-69
2022/03/28 12:12:53;;;;;;;;;;;19.60;56.90;;;;;;5028395;28;1316;-70
2022/03/28 12:15:29;;;;;;;;;;;19.60;57.00;;;;;;5024971;28;1343;-73
2022/03/28 12:17:57;;;;;;;;;;;19.50;56.10;;;;;;5020064;28;1056;-71
2022/03/28 12:20:23;;;;;;;;;;;19.50;55.30;;;;;;5025716;28;2033;-73
2022/03/28 12:22:49;;;;;;;;;;;19.40;55.20;;;;;;5012011;28;1332;-71
2022/03/28 12:25:21;;;;;;;;;;;19.40;54.20;;;;;;5010720;28;1970;-72
2022/03/28 12:27:50;;;;;;;;;;;19.40;54.60;;;;;;5007876;28;1184;-72
2022/03/28 12:30:15;;;;;;;;;;;19.40;54.50;;;;;;5016178;28;1308;-72
2022/03/28 12:32:43;;;;;;;;;;;19.40;53.00;;;;;;5011886;28;2501;-72
2022/03/28 12:35:09;;;;;;;;;;;19.40;53.30;;;;;;5016133;28;1368;-71
2022/03/28 12:37:36;;;;;;;;;;;19.30;52.90;;;;;;5015401;28;1279;-71
2022/03/28 12:40:01;;;;;;;;;;;19.30;51.90;;;;;;5013808;28;1899;-72
2022/03/28 12:42:28;;;;;;;;;;;19.20;51.60;;;;;;5011157;28;1376;-71
2022/03/28 12:44:54;;;;;;;;;;;19.10;50.40;;;;;;5011555;28;1372;-71
2022/03/28 12:47:19;;;;;;;;;;;19.10;51.00;;;;;;5011460;28;1231;-71
2022/03/28 12:49:45;;;;;;;;;;;19.10;51.10;;;;;;5023877;28;1355;-73
2022/03/28 12:52:11;;;;;;;;;;;19.10;50.10;;;;;;5014016;28;1188;-74
2022/03/28 12:54:36;;;;;;;;;;;19.10;50.20;;;;;;5017296;28;1255;-74
2022/03/28 12:57:02;;;;;;;;;;;19.10;50.30;;;;;;5043122;28;1310;-71
2022/03/28 12:59:34;;;;;;;;;;;19.10;50.60;;;;;;5026638;28;1213;-72
2022/03/28 13:02:05;;;;;;;;;;;19.10;50.60;;;;;;5026486;28;1910;-71
2022/03/28 13:04:31;;;;;;;;;;;19.10;49.30;;;;;;5018526;28;1323;-72
2022/03/28 13:07:00;;;;;;;;;;;19.10;49.70;;;;;;5029703;28;1324;-72
2022/03/28 13:09:26;;;;;;;;;;;19.10;49.90;;;;;;5031360;28;1266;-74
2022/03/28 13:11:52;;;;;;;;;;;19.10;50.60;;;;;;5037597;28;1388;-72
2022/03/28 13:14:27;;;;;;;;;;;19.10;50.40;;;;;;5040109;28;1307;-74
2022/03/28 13:17:11;;;;;;;;;;;19.10;50.40;;;;;;5031140;28;1272;-74
2022/03/28 13:19:37;;;;;;;;;;;19.10;50.10;;;;;;5032660;28;1059;-72
2022/03/28 13:22:04;;;;;;;;;;;19.10;50.30;;;;;;5030453;28;1963;-74
2022/03/28 13:24:30;;;;;;;;;;;19.10;50.30;;;;;;5030601;28;929;-72
2022/03/28 13:28:01;;;;;;;;;;;19.10;50.30;;;;;;5025281;28;1343;-73
2022/03/28 13:29:44;;;;;;;;;;;19.10;50.40;;;;;;5024497;28;1723;-75
2022/03/28 13:32:09;;;;;;;;;;;19.10;50.50;;;;;;5031996;28;1073;-72
2022/03/28 13:34:35;;;;;;;;;;;19.00;49.90;;;;;;5037964;28;1284;-73
2022/03/28 13:37:04;;;;;;;;;;;19.00;50.10;;;;;;5031865;28;1395;-74
2022/03/28 13:39:29;;;;;;;;;;;19.10;49.80;;;;;;5041408;28;1266;-72
2022/03/28 13:41:55;;;;;;;;;;;19.10;48.80;;;;;;5020710;28;2182;-73
2022/03/28 13:44:22;;;;;;;;;;;19.10;47.10;;;;;;5038980;28;1182;-71
2022/03/28 13:46:51;;;;;;;;;;;19.10;46.00;;;;;;5044016;28;1271;-73
2022/03/28 13:49:16;;;;;;;;;;;19.10;46.00;;;;;;5024233;28;1645;-72
2022/03/28 13:51:42;;;;;;;;;;;19.10;47.10;;;;;;5031456;28;1175;-73
2022/03/28 13:54:08;;;;;;;;;;;19.10;48.80;;;;;;5034004;28;1555;-74
2022/03/28 13:56:33;;;;;;;;;;;19.10;49.10;;;;;;5041751;28;1257;-71
2022/03/28 13:58:59;;;;;;;;;;;19.10;47.70;;;;;;5018343;28;1066;-72
2022/03/28 14:01:28;;;;;;;;;;;19.00;47.80;;;;;;5029853;28;1906;-71
2022/03/28 14:03:59;;;;;;;;;;;19.00;48.50;;;;;;5045629;28;1128;-70
2022/03/28 14:06:25;;;;;;;;;;;19.00;47.70;;;;;;5011933;28;1295;-70
2022/03/28 14:08:50;;;;;;;;;;;19.00;47.90;;;;;;5016439;28;1224;-70
2022/03/28 14:11:16;;;;;;;;;;;19.10;47.90;;;;;;5046652;28;1338;-71
2022/03/28 14:13:42;;;;;;;;;;;19.10;47.00;;;;;;5049111;28;1424;-70
2022/03/28 14:16:08;;;;;;;;;;;19.10;46.60;;;;;;5023442;28;1369;-70
2022/03/28 14:18:33;;;;;;;;;;;19.10;48.20;;;;;;5035217;28;1610;-71
2022/03/28 14:20:59;;;;;;;;;;;19.10;47.40;;;;;;5034833;28;1940;-71
2022/03/28 14:23:25;;;;;;;;;;;19.10;46.40;;;;;;5034898;28;1284;-69
2022/03/28 14:25:50;;;;;;;;;;;19.10;48.80;;;;;;5034329;28;1294;-69
2022/03/28 14:28:17;;;;;;;;;;;19.10;49.80;;;;;;5021522;28;1300;-69
2022/03/28 14:30:42;;;;;;;;;;;19.10;50.50;;;;;;5033009;28;1326;-69
2022/03/28 14:33:08;;;;;;;;;;;19.10;49.70;;;;;;5033336;28;1060;-69
2022/03/28 14:35:34;;;;;;;;;;;19.10;49.80;;;;;;5034192;28;1249;-69